Cloquet, MN

05:57 CST le 21 novembre 2014 (GMT -0600)
Cloquet Carlton County | Change Station
CLOSE
Current Station
Aéroport
Location: Cloquet,
Altitude: 1280 ft
Stations météo à proximité

Alt. 1280 ft 46.70 °N, 92.50 °W | Updated 21 minutes ago

Partiellement nuageux
Partiellement nuageux
0 ° F
Paraît -12 ° F
N
6
Vent Variable Vent de Sud

Aujourd'hui
Haut(e) -- | Bas -- ° F
--% Risque de précip.
Hier
Haut(e) -- | Bas -- ° F
Precip. -- pouce
7:20 AM 4:30 PM
Lune descendante, 1% visible
Pression 30.12 pouce
Visibilité 10.0 Miles terrestres
Nuages Nuages épars 11000 ft
Refroidissement éolien -12 ° F
Point de rosée -8 ° F
Humidité 72%
Précipitations 0.00 pouce
Profondeur de la couche neigeuse Non disponible.
UV 0 sur 12
Pollen .10 sur 12
Qualité de l'air Non disponible.
Flu Activity Non disponible.
METAR KCOQ 211136Z AUTO 19005KT 10SM SCT110 M18/M22 A3012 RMK AO2

More Conditions Fewer Conditions

Pression 30.12 pouce
Visibilité 10.0 Miles terrestres
Nuages Nuages épars 11000 ft
Refroidissement éolien -12 ° F
Point de rosée -8 ° F
Humidité 72%
Précipitations 0.00 pouce
Profondeur de la couche neigeuse Non disponible.
UV 0 sur 12
Pollen .10 sur 12
Qualité de l'air Non disponible.
Flu Activity Non disponible.
METAR KCOQ 211136Z AUTO 19005KT 10SM SCT110 M18/M22 A3012 RMK AO2

More Conditions Fewer Conditions

10-Day Weather Forecast

Almanac

Astronomie

Nov. 21, 2014 Lever Coucher
Temps réel
Crépuscule civil
Crépuscule nautique
Crépuscule astronomique
Lune
Durée de lumière visible
Longueur du jour
Tomorrow will be .
, % of the Moon is Illuminated

Extrêmes aujourd'hui

State Highs State Lows

Community

WunderPhotos

Upload Photos

1,772,644 Photos téléchargées !

WunderBlogs® & News

Nearby

Qualité de l'air

  Qualité de l'air Indice de la qualité de l'air Polluant
Not available.

Épaisseur de neige

Station Depth Altitude

Activité sismique

Ville Distance Mag. Time & Date
Minimum magnitude displayed is 2.5.

Températures des eaux côtières

Lieu Température

Stations météo à proximité